sensor_id;sensor_type;location;lat;lon;timestamp;temperature;humidity
27384;DHT22;14851;51.166;4.760;2023-05-23T00:01:09;15.60;99.90
27384;DHT22;14851;51.166;4.760;2023-05-23T00:03:34;15.60;99.90
27384;DHT22;14851;51.166;4.760;2023-05-23T00:06:01;15.60;99.90
27384;DHT22;14851;51.166;4.760;2023-05-23T00:08:27;15.60;99.90
27384;DHT22;14851;51.166;4.760;2023-05-23T00:10:52;15.60;99.90
27384;DHT22;14851;51.166;4.760;2023-05-23T00:13:18;15.60;99.90
27384;DHT22;14851;51.166;4.760;2023-05-23T00:15:44;15.60;99.90
27384;DHT22;14851;51.166;4.760;2023-05-23T00:18:11;15.60;99.90
27384;DHT22;14851;51.166;4.760;2023-05-23T00:20:42;15.60;99.90
27384;DHT22;14851;51.166;4.760;2023-05-23T00:23:09;15.60;99.90
27384;DHT22;14851;51.166;4.760;2023-05-23T00:25:36;15.60;99.90
27384;DHT22;14851;51.166;4.760;2023-05-23T00:28:05;15.60;99.90
27384;DHT22;14851;51.166;4.760;2023-05-23T00:30:32;15.60;99.90
27384;DHT22;14851;51.166;4.760;2023-05-23T00:32:59;15.60;99.90
27384;DHT22;14851;51.166;4.760;2023-05-23T00:35:26;15.60;99.90
27384;DHT22;14851;51.166;4.760;2023-05-23T00:37:52;15.60;99.90
27384;DHT22;14851;51.166;4.760;2023-05-23T00:40:20;15.60;99.90
27384;DHT22;14851;51.166;4.760;2023-05-23T00:42:46;15.60;99.90
27384;DHT22;14851;51.166;4.760;2023-05-23T00:45:13;15.60;99.90
27384;DHT22;14851;51.166;4.760;2023-05-23T00:47:40;15.60;99.90
27384;DHT22;14851;51.166;4.760;2023-05-23T00:50:10;15.60;99.90
27384;DHT22;14851;51.166;4.760;2023-05-23T00:52:37;15.60;99.90
27384;DHT22;14851;51.166;4.760;2023-05-23T00:55:04;15.60;99.90
27384;DHT22;14851;51.166;4.760;2023-05-23T00:57:30;15.50;99.90
27384;DHT22;14851;51.166;4.760;2023-05-23T01:00:02;15.50;99.90
27384;DHT22;14851;51.166;4.760;2023-05-23T01:02:32;15.60;99.90
27384;DHT22;14851;51.166;4.760;2023-05-23T01:05:01;15.60;99.90
27384;DHT22;14851;51.166;4.760;2023-05-23T01:07:27;15.50;99.90
27384;DHT22;14851;51.166;4.760;2023-05-23T01:09:53;15.50;99.90
27384;DHT22;14851;51.166;4.760;2023-05-23T01:12:37;15.50;99.90
27384;DHT22;14851;51.166;4.760;2023-05-23T01:15:09;15.50;99.90
27384;DHT22;14851;51.166;4.760;2023-05-23T01:17:49;15.50;99.90
27384;DHT22;14851;51.166;4.760;2023-05-23T01:20:44;15.50;99.90
27384;DHT22;14851;51.166;4.760;2023-05-23T01:28:51;15.50;99.90
27384;DHT22;14851;51.166;4.760;2023-05-23T01:31:19;15.40;99.90
27384;DHT22;14851;51.166;4.760;2023-05-23T01:33:49;15.40;99.90
27384;DHT22;14851;51.166;4.760;2023-05-23T01:36:18;15.30;99.90
27384;DHT22;14851;51.166;4.760;2023-05-23T01:38:44;15.30;99.90
27384;DHT22;14851;51.166;4.760;2023-05-23T01:41:12;15.30;99.90
27384;DHT22;14851;51.166;4.760;2023-05-23T01:43:38;15.40;99.90
27384;DHT22;14851;51.166;4.760;2023-05-23T01:46:05;15.40;99.90
27384;DHT22;14851;51.166;4.760;2023-05-23T01:48:34;15.40;99.90
27384;DHT22;14851;51.166;4.760;2023-05-23T01:51:02;15.40;99.90
27384;DHT22;14851;51.166;4.760;2023-05-23T01:53:29;15.40;99.90
27384;DHT22;14851;51.166;4.760;2023-05-23T01:55:57;15.40;99.90
27384;DHT22;14851;51.166;4.760;2023-05-23T01:58:23;15.40;99.90
27384;DHT22;14851;51.166;4.760;2023-05-23T02:00:52;15.30;99.90
27384;DHT22;14851;51.166;4.760;2023-05-23T02:03:18;15.20;99.90
27384;DHT22;14851;51.166;4.760;2023-05-23T02:05:44;15.20;99.90
27384;DHT22;14851;51.166;4.760;2023-05-23T02:08:11;15.20;99.90
27384;DHT22;14851;51.166;4.760;2023-05-23T02:10:39;15.20;99.90
27384;DHT22;14851;51.166;4.760;2023-05-23T02:13:04;15.20;99.90
27384;DHT22;14851;51.166;4.760;2023-05-23T02:15:30;15.20;99.90
27384;DHT22;14851;51.166;4.760;2023-05-23T02:17:57;15.10;99.90
27384;DHT22;14851;51.166;4.760;2023-05-23T02:20:23;15.10;99.90
27384;DHT22;14851;51.166;4.760;2023-05-23T02:22:51;15.10;99.90
27384;DHT22;14851;51.166;4.760;2023-05-23T02:25:17;15.10;99.90
27384;DHT22;14851;51.166;4.760;2023-05-23T02:27:43;15.10;99.90
27384;DHT22;14851;51.166;4.760;2023-05-23T02:30:11;15.10;99.90
27384;DHT22;14851;51.166;4.760;2023-05-23T02:32:37;15.10;99.90
27384;DHT22;14851;51.166;4.760;2023-05-23T02:35:04;15.10;99.90
27384;DHT22;14851;51.166;4.760;2023-05-23T02:37:30;15.00;99.90
27384;DHT22;14851;51.166;4.760;2023-05-23T02:39:58;15.00;99.90
27384;DHT22;14851;51.166;4.760;2023-05-23T02:42:24;15.00;99.90
27384;DHT22;14851;51.166;4.760;2023-05-23T02:44:50;14.90;99.90
27384;DHT22;14851;51.166;4.760;2023-05-23T02:47:17;14.90;99.90
27384;DHT22;14851;51.166;4.760;2023-05-23T02:49:42;14.90;99.90
27384;DHT22;14851;51.166;4.760;2023-05-23T02:52:08;14.80;99.90
27384;DHT22;14851;51.166;4.760;2023-05-23T02:54:37;14.80;99.90
27384;DHT22;14851;51.166;4.760;2023-05-23T02:57:06;14.80;99.90
27384;DHT22;14851;51.166;4.760;2023-05-23T02:59:40;14.80;99.90
27384;DHT22;14851;51.166;4.760;2023-05-23T03:02:06;14.70;99.90
27384;DHT22;14851;51.166;4.760;2023-05-23T03:04:32;14.70;99.90
27384;DHT22;14851;51.166;4.760;2023-05-23T03:07:00;14.70;99.90
27384;DHT22;14851;51.166;4.760;2023-05-23T03:09:30;14.70;99.90
27384;DHT22;14851;51.166;4.760;2023-05-23T03:11:59;14.70;99.90
27384;DHT22;14851;51.166;4.760;2023-05-23T03:14:29;14.70;99.90
27384;DHT22;14851;51.166;4.760;2023-05-23T03:16:58;14.70;99.90
27384;DHT22;14851;51.166;4.760;2023-05-23T03:19:24;14.70;99.90
27384;DHT22;14851;51.166;4.760;2023-05-23T03:21:50;14.70;99.90
27384;DHT22;14851;51.166;4.760;2023-05-23T03:24:17;14.70;99.90
27384;DHT22;14851;51.166;4.760;2023-05-23T03:26:43;14.70;99.90
27384;DHT22;14851;51.166;4.760;2023-05-23T03:29:11;14.60;99.90
27384;DHT22;14851;51.166;4.760;2023-05-23T03:31:39;14.70;99.90
27384;DHT22;14851;51.166;4.760;2023-05-23T03:34:05;14.60;99.90
27384;DHT22;14851;51.166;4.760;2023-05-23T03:36:31;14.60;99.90
27384;DHT22;14851;51.166;4.760;2023-05-23T03:38:58;14.60;99.90
27384;DHT22;14851;51.166;4.760;2023-05-23T03:41:24;14.60;99.90
27384;DHT22;14851;51.166;4.760;2023-05-23T03:43:54;14.60;99.90
27384;DHT22;14851;51.166;4.760;2023-05-23T03:46:20;14.60;99.90
27384;DHT22;14851;51.166;4.760;2023-05-23T03:48:46;14.60;99.90
27384;DHT22;14851;51.166;4.760;2023-05-23T03:51:15;14.60;99.90
27384;DHT22;14851;51.166;4.760;2023-05-23T03:53:41;14.60;99.90
27384;DHT22;14851;51.166;4.760;2023-05-23T03:56:07;14.60;99.90
27384;DHT22;14851;51.166;4.760;2023-05-23T03:58:33;14.60;99.90
27384;DHT22;14851;51.166;4.760;2023-05-23T04:01:05;14.60;99.90
27384;DHT22;14851;51.166;4.760;2023-05-23T04:03:31;14.60;99.90
27384;DHT22;14851;51.166;4.760;2023-05-23T04:05:58;14.50;99.90
27384;DHT22;14851;51.166;4.760;2023-05-23T04:08:27;14.60;99.90
27384;DHT22;14851;51.166;4.760;2023-05-23T04:10:54;14.50;99.90
27384;DHT22;14851;51.166;4.760;2023-05-23T04:13:22;14.60;99.90
27384;DHT22;14851;51.166;4.760;2023-05-23T04:15:49;14.60;99.90
27384;DHT22;14851;51.166;4.760;2023-05-23T04:18:19;14.60;99.90
27384;DHT22;14851;51.166;4.760;2023-05-23T04:20:45;14.60;99.90
27384;DHT22;14851;51.166;4.760;2023-05-23T04:23:11;14.60;99.90
27384;DHT22;14851;51.166;4.760;2023-05-23T04:25:40;14.60;99.90
27384;DHT22;14851;51.166;4.760;2023-05-23T04:28:11;14.70;99.90
27384;DHT22;14851;51.166;4.760;2023-05-23T04:30:37;14.70;99.90
27384;DHT22;14851;51.166;4.760;2023-05-23T04:33:05;14.70;99.90
27384;DHT22;14851;51.166;4.760;2023-05-23T04:35:35;14.70;99.90
27384;DHT22;14851;51.166;4.760;2023-05-23T04:38:04;14.70;99.90
27384;DHT22;14851;51.166;4.760;2023-05-23T04:40:31;14.70;99.90
27384;DHT22;14851;51.166;4.760;2023-05-23T04:43:18;14.70;99.90
27384;DHT22;14851;51.166;4.760;2023-05-23T04:45:50;14.70;99.90
27384;DHT22;14851;51.166;4.760;2023-05-23T04:48:36;14.70;99.90
27384;DHT22;14851;51.166;4.760;2023-05-23T04:51:03;14.70;99.90
27384;DHT22;14851;51.166;4.760;2023-05-23T04:53:36;14.70;99.90
27384;DHT22;14851;51.166;4.760;2023-05-23T04:56:02;14.60;99.90
27384;DHT22;14851;51.166;4.760;2023-05-23T04:58:29;14.70;99.90
27384;DHT22;14851;51.166;4.760;2023-05-23T05:01:00;14.70;99.90
27384;DHT22;14851;51.166;4.760;2023-05-23T05:03:26;14.70;99.90
27384;DHT22;14851;51.166;4.760;2023-05-23T05:05:52;14.70;99.90
27384;DHT22;14851;51.166;4.760;2023-05-23T05:08:19;14.70;99.90
27384;DHT22;14851;51.166;4.760;2023-05-23T05:10:45;14.70;99.90
27384;DHT22;14851;51.166;4.760;2023-05-23T05:13:11;14.70;99.90
27384;DHT22;14851;51.166;4.760;2023-05-23T05:15:44;14.70;99.90
27384;DHT22;14851;51.166;4.760;2023-05-23T05:18:11;14.70;99.90
27384;DHT22;14851;51.166;4.760;2023-05-23T05:20:39;14.60;99.90
27384;DHT22;14851;51.166;4.760;2023-05-23T05:23:10;14.70;99.90
27384;DHT22;14851;51.166;4.760;2023-05-23T05:25:36;14.70;99.90
27384;DHT22;14851;51.166;4.760;2023-05-23T05:28:06;14.70;99.90
27384;DHT22;14851;51.166;4.760;2023-05-23T05:30:48;14.60;99.90
27384;DHT22;14851;51.166;4.760;2023-05-23T05:33:20;14.60;99.90
27384;DHT22;14851;51.166;4.760;2023-05-23T05:35:58;14.60;99.90
27384;DHT22;14851;51.166;4.760;2023-05-23T05:38:24;14.60;99.90
27384;DHT22;14851;51.166;4.760;2023-05-23T05:40:50;14.60;99.90
27384;DHT22;14851;51.166;4.760;2023-05-23T05:43:16;14.50;99.90
27384;DHT22;14851;51.166;4.760;2023-05-23T05:45:42;14.50;99.90
27384;DHT22;14851;51.166;4.760;2023-05-23T05:48:08;14.60;99.90
27384;DHT22;14851;51.166;4.760;2023-05-23T05:50:36;14.60;99.90
27384;DHT22;14851;51.166;4.760;2023-05-23T05:53:04;14.50;99.90
27384;DHT22;14851;51.166;4.760;2023-05-23T05:55:30;14.50;99.90
27384;DHT22;14851;51.166;4.760;2023-05-23T05:57:56;14.50;99.90
27384;DHT22;14851;51.166;4.760;2023-05-23T06:00:26;14.50;99.90
27384;DHT22;14851;51.166;4.760;2023-05-23T06:02:56;14.50;99.90
27384;DHT22;14851;51.166;4.760;2023-05-23T06:05:41;14.40;99.90
27384;DHT22;14851;51.166;4.760;2023-05-23T06:08:07;14.40;99.90
27384;DHT22;14851;51.166;4.760;2023-05-23T06:10:33;14.50;99.90
27384;DHT22;14851;51.166;4.760;2023-05-23T06:13:01;14.50;99.90
27384;DHT22;14851;51.166;4.760;2023-05-23T06:15:28;14.50;99.90
27384;DHT22;14851;51.166;4.760;2023-05-23T06:17:54;14.40;99.90
27384;DHT22;14851;51.166;4.760;2023-05-23T06:20:20;14.40;99.90
27384;DHT22;14851;51.166;4.760;2023-05-23T06:22:47;14.50;99.90
27384;DHT22;14851;51.166;4.760;2023-05-23T06:25:13;14.40;99.90
27384;DHT22;14851;51.166;4.760;2023-05-23T06:27:43;14.50;99.90
27384;DHT22;14851;51.166;4.760;2023-05-23T06:30:11;14.50;99.90
27384;DHT22;14851;51.166;4.760;2023-05-23T06:32:37;14.50;99.90
27384;DHT22;14851;51.166;4.760;2023-05-23T06:35:03;14.50;99.90
27384;DHT22;14851;51.166;4.760;2023-05-23T06:37:29;14.50;99.90
27384;DHT22;14851;51.166;4.760;2023-05-23T06:39:55;14.60;99.90
27384;DHT22;14851;51.166;4.760;2023-05-23T06:42:21;14.50;99.90
27384;DHT22;14851;51.166;4.760;2023-05-23T06:45:00;14.50;99.90
27384;DHT22;14851;51.166;4.760;2023-05-23T06:47:26;14.60;99.90
27384;DHT22;14851;51.166;4.760;2023-05-23T06:49:52;14.60;99.90
27384;DHT22;14851;51.166;4.760;2023-05-23T06:52:19;14.60;99.90
27384;DHT22;14851;51.166;4.760;2023-05-23T06:54:47;14.60;99.90
27384;DHT22;14851;51.166;4.760;2023-05-23T06:57:13;14.50;99.90
27384;DHT22;14851;51.166;4.760;2023-05-23T06:59:39;14.50;99.90
27384;DHT22;14851;51.166;4.760;2023-05-23T07:02:05;14.50;99.90
27384;DHT22;14851;51.166;4.760;2023-05-23T07:04:33;14.60;99.90
27384;DHT22;14851;51.166;4.760;2023-05-23T07:07:11;14.60;99.90
27384;DHT22;14851;51.166;4.760;2023-05-23T07:09:39;14.70;99.90
27384;DHT22;14851;51.166;4.760;2023-05-23T07:12:15;14.80;99.90
27384;DHT22;14851;51.166;4.760;2023-05-23T07:14:43;14.80;99.90
27384;DHT22;14851;51.166;4.760;2023-05-23T07:17:10;14.90;99.90
27384;DHT22;14851;51.166;4.760;2023-05-23T07:19:37;14.90;99.90
27384;DHT22;14851;51.166;4.760;2023-05-23T07:22:03;14.90;99.90
27384;DHT22;14851;51.166;4.760;2023-05-23T07:24:31;14.80;99.90
27384;DHT22;14851;51.166;4.760;2023-05-23T07:27:00;14.90;99.90
27384;DHT22;14851;51.166;4.760;2023-05-23T07:29:27;14.80;99.90
27384;DHT22;14851;51.166;4.760;2023-05-23T07:31:55;14.90;99.90
27384;DHT22;14851;51.166;4.760;2023-05-23T07:34:22;15.00;99.90
27384;DHT22;14851;51.166;4.760;2023-05-23T07:36:58;15.00;99.90
27384;DHT22;14851;51.166;4.760;2023-05-23T07:39:26;15.20;99.90
27384;DHT22;14851;51.166;4.760;2023-05-23T07:41:54;15.30;99.90
27384;DHT22;14851;51.166;4.760;2023-05-23T07:44:20;15.40;99.90
27384;DHT22;14851;51.166;4.760;2023-05-23T07:46:49;15.40;99.90
27384;DHT22;14851;51.166;4.760;2023-05-23T07:49:15;15.50;99.90
27384;DHT22;14851;51.166;4.760;2023-05-23T07:51:41;15.50;99.90
27384;DHT22;14851;51.166;4.760;2023-05-23T07:54:09;15.50;99.90
27384;DHT22;14851;51.166;4.760;2023-05-23T07:56:38;15.50;99.90
27384;DHT22;14851;51.166;4.760;2023-05-23T07:59:05;15.40;99.90
27384;DHT22;14851;51.166;4.760;2023-05-23T08:01:33;15.40;99.90
27384;DHT22;14851;51.166;4.760;2023-05-23T08:04:05;15.40;99.90
27384;DHT22;14851;51.166;4.760;2023-05-23T08:06:36;15.40;99.90
27384;DHT22;14851;51.166;4.760;2023-05-23T08:09:06;15.40;99.90
27384;DHT22;14851;51.166;4.760;2023-05-23T08:11:36;15.40;99.90
27384;DHT22;14851;51.166;4.760;2023-05-23T08:14:05;15.50;99.90
27384;DHT22;14851;51.166;4.760;2023-05-23T08:16:38;15.50;99.90
27384;DHT22;14851;51.166;4.760;2023-05-23T08:19:19;15.50;99.90
27384;DHT22;14851;51.166;4.760;2023-05-23T08:21:46;15.40;99.90
27384;DHT22;14851;51.166;4.760;2023-05-23T08:24:12;15.40;99.90
27384;DHT22;14851;51.166;4.760;2023-05-23T08:26:39;15.40;99.90
27384;DHT22;14851;51.166;4.760;2023-05-23T08:29:08;15.40;99.90
27384;DHT22;14851;51.166;4.760;2023-05-23T08:31:35;15.40;99.90
27384;DHT22;14851;51.166;4.760;2023-05-23T08:34:01;15.40;99.90
27384;DHT22;14851;51.166;4.760;2023-05-23T08:36:28;15.50;99.90
27384;DHT22;14851;51.166;4.760;2023-05-23T08:39:01;15.50;99.90
27384;DHT22;14851;51.166;4.760;2023-05-23T08:41:30;15.50;99.90
27384;DHT22;14851;51.166;4.760;2023-05-23T08:44:03;15.40;99.90
27384;DHT22;14851;51.166;4.760;2023-05-23T08:46:43;15.40;99.90
27384;DHT22;14851;51.166;4.760;2023-05-23T08:49:12;15.40;99.90
27384;DHT22;14851;51.166;4.760;2023-05-23T08:51:43;15.30;99.90
27384;DHT22;14851;51.166;4.760;2023-05-23T08:54:17;15.30;99.90
27384;DHT22;14851;51.166;4.760;2023-05-23T08:56:43;15.40;99.90
27384;DHT22;14851;51.166;4.760;2023-05-23T08:59:14;15.40;99.90
27384;DHT22;14851;51.166;4.760;2023-05-23T09:01:44;15.40;99.90
27384;DHT22;14851;51.166;4.760;2023-05-23T09:04:13;15.40;99.90
27384;DHT22;14851;51.166;4.760;2023-05-23T09:06:54;15.50;99.90
27384;DHT22;14851;51.166;4.760;2023-05-23T09:09:21;15.50;99.90
27384;DHT22;14851;51.166;4.760;2023-05-23T09:11:49;15.40;99.90
27384;DHT22;14851;51.166;4.760;2023-05-23T09:14:15;15.50;99.90
27384;DHT22;14851;51.166;4.760;2023-05-23T09:16:47;15.50;99.90
27384;DHT22;14851;51.166;4.760;2023-05-23T09:19:20;15.60;99.90
27384;DHT22;14851;51.166;4.760;2023-05-23T09:21:55;15.70;99.90
27384;DHT22;14851;51.166;4.760;2023-05-23T09:24:33;15.70;99.90
27384;DHT22;14851;51.166;4.760;2023-05-23T09:27:01;15.70;99.90
27384;DHT22;14851;51.166;4.760;2023-05-23T09:29:28;15.70;99.90
27384;DHT22;14851;51.166;4.760;2023-05-23T09:32:16;15.70;99.90
27384;DHT22;14851;51.166;4.760;2023-05-23T09:37:44;15.90;99.90
27384;DHT22;14851;51.166;4.760;2023-05-23T09:40:14;15.90;99.90
27384;DHT22;14851;51.166;4.760;2023-05-23T09:42:47;15.90;99.90
27384;DHT22;14851;51.166;4.760;2023-05-23T09:45:14;15.90;99.90
27384;DHT22;14851;51.166;4.760;2023-05-23T09:47:52;16.00;99.90
27384;DHT22;14851;51.166;4.760;2023-05-23T09:50:19;16.10;99.90
27384;DHT22;14851;51.166;4.760;2023-05-23T09:52:48;16.10;99.90
27384;DHT22;14851;51.166;4.760;2023-05-23T09:55:15;16.20;99.90
27384;DHT22;14851;51.166;4.760;2023-05-23T09:57:43;16.20;99.90
27384;DHT22;14851;51.166;4.760;2023-05-23T10:00:10;16.30;99.90
27384;DHT22;14851;51.166;4.760;2023-05-23T10:03:11;16.40;99.90
27384;DHT22;14851;51.166;4.760;2023-05-23T10:08:24;16.50;99.90
27384;DHT22;14851;51.166;4.760;2023-05-23T10:13:45;16.50;99.90
27384;DHT22;14851;51.166;4.760;2023-05-23T10:19:12;16.60;99.90
27384;DHT22;14851;51.166;4.760;2023-05-23T10:21:43;16.60;99.90
27384;DHT22;14851;51.166;4.760;2023-05-23T10:24:14;16.70;99.90
27384;DHT22;14851;51.166;4.760;2023-05-23T10:26:41;16.80;99.90
27384;DHT22;14851;51.166;4.760;2023-05-23T10:29:10;16.80;99.90
27384;DHT22;14851;51.166;4.760;2023-05-23T10:31:38;16.70;99.90
27384;DHT22;14851;51.166;4.760;2023-05-23T10:37:02;16.90;99.90
27384;DHT22;14851;51.166;4.760;2023-05-23T10:40:02;16.90;99.90
27384;DHT22;14851;51.166;4.760;2023-05-23T10:45:23;17.00;99.90
27384;DHT22;14851;51.166;4.760;2023-05-23T10:47:54;16.90;99.90
27384;DHT22;14851;51.166;4.760;2023-05-23T10:50:34;16.90;99.90
27384;DHT22;14851;51.166;4.760;2023-05-23T10:53:05;16.90;99.90
27384;DHT22;14851;51.166;4.760;2023-05-23T10:55:35;17.00;99.90
27384;DHT22;14851;51.166;4.760;2023-05-23T10:58:18;17.10;99.90
27384;DHT22;14851;51.166;4.760;2023-05-23T11:00:55;17.10;99.90
27384;DHT22;14851;51.166;4.760;2023-05-23T11:03:51;17.20;99.90
27384;DHT22;14851;51.166;4.760;2023-05-23T11:06:39;17.30;99.90
27384;DHT22;14851;51.166;4.760;2023-05-23T11:09:14;17.20;99.90
27384;DHT22;14851;51.166;4.760;2023-05-23T11:16:57;17.30;99.90
27384;DHT22;14851;51.166;4.760;2023-05-23T11:19:25;17.30;99.90
27384;DHT22;14851;51.166;4.760;2023-05-23T11:22:00;17.30;99.90
27384;DHT22;14851;51.166;4.760;2023-05-23T11:24:49;17.30;99.90
27384;DHT22;14851;51.166;4.760;2023-05-23T11:27:32;17.20;99.90
27384;DHT22;14851;51.166;4.760;2023-05-23T11:30:13;17.20;99.90
27384;DHT22;14851;51.166;4.760;2023-05-23T11:32:40;17.30;99.90
27384;DHT22;14851;51.166;4.760;2023-05-23T11:35:09;17.20;99.90
27384;DHT22;14851;51.166;4.760;2023-05-23T11:37:37;17.20;99.90
27384;DHT22;14851;51.166;4.760;2023-05-23T11:42:56;17.40;99.90
27384;DHT22;14851;51.166;4.760;2023-05-23T11:45:22;17.40;99.90
27384;DHT22;14851;51.166;4.760;2023-05-23T11:47:48;17.40;99.90
27384;DHT22;14851;51.166;4.760;2023-05-23T11:50:16;17.40;99.90
27384;DHT22;14851;51.166;4.760;2023-05-23T11:52:43;17.50;99.90
27384;DHT22;14851;51.166;4.760;2023-05-23T11:55:11;17.60;99.90
27384;DHT22;14851;51.166;4.760;2023-05-23T11:57:38;17.60;99.90
27384;DHT22;14851;51.166;4.760;2023-05-23T12:00:08;17.60;99.90
27384;DHT22;14851;51.166;4.760;2023-05-23T12:02:39;17.60;99.90
27384;DHT22;14851;51.166;4.760;2023-05-23T12:05:09;17.70;99.90
27384;DHT22;14851;51.166;4.760;2023-05-23T12:07:44;17.90;99.90
27384;DHT22;14851;51.166;4.760;2023-05-23T12:10:18;18.00;99.90
27384;DHT22;14851;51.166;4.760;2023-05-23T12:12:46;18.00;99.90
27384;DHT22;14851;51.166;4.760;2023-05-23T12:15:13;18.10;99.90
27384;DHT22;14851;51.166;4.760;2023-05-23T12:17:48;18.00;99.90
27384;DHT22;14851;51.166;4.760;2023-05-23T12:20:15;18.10;99.90
27384;DHT22;14851;51.166;4.760;2023-05-23T12:22:41;18.10;99.90
27384;DHT22;14851;51.166;4.760;2023-05-23T12:25:08;18.20;99.90
27384;DHT22;14851;51.166;4.760;2023-05-23T12:27:35;18.20;99.90
27384;DHT22;14851;51.166;4.760;2023-05-23T12:30:08;18.10;99.90
27384;DHT22;14851;51.166;4.760;2023-05-23T12:32:39;18.10;99.90
27384;DHT22;14851;51.166;4.760;2023-05-23T12:35:07;18.00;99.90
27384;DHT22;14851;51.166;4.760;2023-05-23T12:37:34;18.10;99.90
27384;DHT22;14851;51.166;4.760;2023-05-23T12:40:15;18.20;99.90
27384;DHT22;14851;51.166;4.760;2023-05-23T12:42:55;18.20;99.90
27384;DHT22;14851;51.166;4.760;2023-05-23T12:45:34;18.30;99.90
27384;DHT22;14851;51.166;4.760;2023-05-23T12:48:01;18.30;99.90
27384;DHT22;14851;51.166;4.760;2023-05-23T12:50:30;18.30;99.90
27384;DHT22;14851;51.166;4.760;2023-05-23T12:52:57;18.30;99.90
27384;DHT22;14851;51.166;4.760;2023-05-23T12:55:23;18.40;99.90
27384;DHT22;14851;51.166;4.760;2023-05-23T12:57:49;18.40;99.90
27384;DHT22;14851;51.166;4.760;2023-05-23T13:00:16;18.50;99.90
27384;DHT22;14851;51.166;4.760;2023-05-23T13:02:42;18.60;99.90
27384;DHT22;14851;51.166;4.760;2023-05-23T13:05:08;18.60;99.90
27384;DHT22;14851;51.166;4.760;2023-05-23T13:07:35;18.50;99.90
27384;DHT22;14851;51.166;4.760;2023-05-23T13:10:03;18.40;99.90
27384;DHT22;14851;51.166;4.760;2023-05-23T13:12:31;18.40;99.90
27384;DHT22;14851;51.166;4.760;2023-05-23T13:14:58;18.50;99.90
27384;DHT22;14851;51.166;4.760;2023-05-23T13:17:25;18.60;99.90
27384;DHT22;14851;51.166;4.760;2023-05-23T13:19:50;18.60;99.90
27384;DHT22;14851;51.166;4.760;2023-05-23T13:22:16;18.70;99.90
27384;DHT22;14851;51.166;4.760;2023-05-23T13:24:42;18.70;99.90
27384;DHT22;14851;51.166;4.760;2023-05-23T13:27:08;18.70;99.90
27384;DHT22;14851;51.166;4.760;2023-05-23T13:29:34;18.70;99.90
27384;DHT22;14851;51.166;4.760;2023-05-23T13:32:00;18.80;99.90
27384;DHT22;14851;51.166;4.760;2023-05-23T13:34:26;18.80;99.90
27384;DHT22;14851;51.166;4.760;2023-05-23T13:36:53;18.80;99.90
27384;DHT22;14851;51.166;4.760;2023-05-23T13:39:21;18.80;99.90
27384;DHT22;14851;51.166;4.760;2023-05-23T13:41:51;18.80;99.90
27384;DHT22;14851;51.166;4.760;2023-05-23T13:44:19;18.70;99.90
27384;DHT22;14851;51.166;4.760;2023-05-23T13:46:45;18.60;99.90
27384;DHT22;14851;51.166;4.760;2023-05-23T13:49:11;18.60;99.90
27384;DHT22;14851;51.166;4.760;2023-05-23T13:51:37;18.70;99.90
27384;DHT22;14851;51.166;4.760;2023-05-23T13:54:06;18.90;99.90
27384;DHT22;14851;51.166;4.760;2023-05-23T13:56:32;18.90;99.90
27384;DHT22;14851;51.166;4.760;2023-05-23T13:58:58;18.80;99.90
27384;DHT22;14851;51.166;4.760;2023-05-23T14:01:24;18.80;99.90
27384;DHT22;14851;51.166;4.760;2023-05-23T14:03:50;18.90;99.90
27384;DHT22;14851;51.166;4.760;2023-05-23T14:06:16;18.90;99.90
27384;DHT22;14851;51.166;4.760;2023-05-23T14:08:42;19.00;99.90
27384;DHT22;14851;51.166;4.760;2023-05-23T14:11:08;19.00;99.90
27384;DHT22;14851;51.166;4.760;2023-05-23T14:13:34;19.00;99.90
27384;DHT22;14851;51.166;4.760;2023-05-23T14:16:01;18.90;99.90
27384;DHT22;14851;51.166;4.760;2023-05-23T14:18:29;18.80;99.90
27384;DHT22;14851;51.166;4.760;2023-05-23T14:20:55;18.70;99.90
27384;DHT22;14851;51.166;4.760;2023-05-23T14:23:22;18.80;99.90
27384;DHT22;14851;51.166;4.760;2023-05-23T14:25:49;18.90;99.90
27384;DHT22;14851;51.166;4.760;2023-05-23T14:28:16;19.10;99.90
27384;DHT22;14851;51.166;4.760;2023-05-23T14:30:43;19.20;99.90
27384;DHT22;14851;51.166;4.760;2023-05-23T14:33:09;19.20;99.90
27384;DHT22;14851;51.166;4.760;2023-05-23T14:35:35;19.30;99.90
27384;DHT22;14851;51.166;4.760;2023-05-23T14:38:03;19.30;99.90
27384;DHT22;14851;51.166;4.760;2023-05-23T14:40:31;19.40;99.90
27384;DHT22;14851;51.166;4.760;2023-05-23T14:42:57;19.50;99.90
27384;DHT22;14851;51.166;4.760;2023-05-23T14:45:23;19.50;99.90
27384;DHT22;14851;51.166;4.760;2023-05-23T14:47:49;19.60;99.90
27384;DHT22;14851;51.166;4.760;2023-05-23T14:50:16;19.70;99.90
27384;DHT22;14851;51.166;4.760;2023-05-23T14:52:41;19.70;99.90
27384;DHT22;14851;51.166;4.760;2023-05-23T14:55:07;19.80;99.90
27384;DHT22;14851;51.166;4.760;2023-05-23T14:57:33;19.90;99.90
27384;DHT22;14851;51.166;4.760;2023-05-23T14:59:59;19.90;99.90
27384;DHT22;14851;51.166;4.760;2023-05-23T15:02:27;19.70;99.90
27384;DHT22;14851;51.166;4.760;2023-05-23T15:04:53;19.60;99.90
27384;DHT22;14851;51.166;4.760;2023-05-23T15:07:19;19.50;99.90
27384;DHT22;14851;51.166;4.760;2023-05-23T15:09:45;19.40;99.90
27384;DHT22;14851;51.166;4.760;2023-05-23T15:12:12;19.40;99.90
27384;DHT22;14851;51.166;4.760;2023-05-23T15:14:40;19.40;99.90
27384;DHT22;14851;51.166;4.760;2023-05-23T15:17:08;19.30;99.90
27384;DHT22;14851;51.166;4.760;2023-05-23T15:19:35;19.10;99.90
27384;DHT22;14851;51.166;4.760;2023-05-23T15:22:03;19.20;99.90
27384;DHT22;14851;51.166;4.760;2023-05-23T15:24:29;19.20;99.90
27384;DHT22;14851;51.166;4.760;2023-05-23T15:26:57;19.30;99.90
27384;DHT22;14851;51.166;4.760;2023-05-23T15:29:23;19.20;99.90
27384;DHT22;14851;51.166;4.760;2023-05-23T15:31:54;19.20;99.90
27384;DHT22;14851;51.166;4.760;2023-05-23T15:34:21;19.20;99.90
27384;DHT22;14851;51.166;4.760;2023-05-23T15:36:50;19.20;99.90
27384;DHT22;14851;51.166;4.760;2023-05-23T15:39:16;19.10;99.90
27384;DHT22;14851;51.166;4.760;2023-05-23T15:41:42;19.10;99.90
27384;DHT22;14851;51.166;4.760;2023-05-23T15:44:09;19.10;99.90
27384;DHT22;14851;51.166;4.760;2023-05-23T15:46:36;19.00;99.90
27384;DHT22;14851;51.166;4.760;2023-05-23T15:49:06;18.90;99.90
27384;DHT22;14851;51.166;4.760;2023-05-23T15:51:32;18.90;99.90
27384;DHT22;14851;51.166;4.760;2023-05-23T15:53:59;18.80;99.90
27384;DHT22;14851;51.166;4.760;2023-05-23T15:56:25;18.80;99.90
27384;DHT22;14851;51.166;4.760;2023-05-23T15:58:51;18.80;99.90
27384;DHT22;14851;51.166;4.760;2023-05-23T16:01:17;18.90;99.90
27384;DHT22;14851;51.166;4.760;2023-05-23T16:03:42;18.90;99.90
27384;DHT22;14851;51.166;4.760;2023-05-23T16:06:10;18.90;99.90
27384;DHT22;14851;51.166;4.760;2023-05-23T16:08:44;18.80;99.90
27384;DHT22;14851;51.166;4.760;2023-05-23T16:11:10;18.80;99.90